Time;durP1;ratioP1;P1;durP2;ratioP2;P2;SDS_P1;SDS_P2;PMS_P1;PMS_P2;Temp;Humidity;BMP_temperature;BMP_pressure;BME280_temperature;BME280_humidity;BME280_pressure;Samples;Min_cycle;Max_cycle;Signal;HPM_P1;HPM_P2
2022/10/21 00:01:49;;;;;;;15.20;10.27;;;24.00;39.20;;;;;;7712584;22;82968;-62
2022/10/21 00:04:49;;;;;;;15.73;10.80;;;24.00;39.30;;;;;;7714785;22;84251;-62
2022/10/21 00:07:50;;;;;;;15.55;10.45;;;24.00;40.00;;;;;;7714617;22;84473;-62
2022/10/21 00:10:50;;;;;;;15.80;11.25;;;24.00;39.40;;;;;;7714154;22;82717;-62
2022/10/21 00:13:51;;;;;;;16.60;10.20;;;24.00;39.30;;;;;;7713822;22;82852;-62
2022/10/21 00:16:51;;;;;;;16.35;9.82;;;23.90;39.30;;;;;;7710163;22;87041;-62
2022/10/21 00:19:52;;;;;;;18.70;11.45;;;23.90;39.60;;;;;;7717513;22;82705;-62
2022/10/21 00:22:52;;;;;;;16.55;11.18;;;24.00;39.30;;;;;;7714690;22;82672;-63
2022/10/21 00:25:53;;;;;;;16.88;10.35;;;23.90;39.40;;;;;;7712638;22;83508;-61
2022/10/21 00:28:54;;;;;;;15.23;10.13;;;24.00;39.30;;;;;;7713218;22;84569;-63
2022/10/21 00:31:54;;;;;;;14.38;10.18;;;24.00;39.30;;;;;;7711848;22;82573;-63
2022/10/21 00:34:55;;;;;;;15.63;10.68;;;24.00;39.30;;;;;;7712694;22;83297;-63
2022/10/21 00:37:55;;;;;;;13.73;9.25;;;24.00;39.30;;;;;;7713755;22;83182;-64
2022/10/21 00:40:56;;;;;;;14.88;10.95;;;24.00;39.20;;;;;;7718734;22;81884;-64
2022/10/21 00:43:56;;;;;;;16.52;10.23;;;24.00;39.20;;;;;;7712747;22;82652;-63
2022/10/21 00:46:57;;;;;;;14.55;9.25;;;23.90;39.30;;;;;;7711004;22;85259;-62
2022/10/21 00:49:57;;;;;;;13.77;9.70;;;23.90;39.10;;;;;;7715939;22;82943;-62
2022/10/21 00:52:58;;;;;;;15.85;10.30;;;23.90;39.10;;;;;;7719182;22;81010;-61
2022/10/21 00:55:58;;;;;;;17.63;10.82;;;23.90;39.00;;;;;;7713629;22;84028;-62
2022/10/21 00:58:59;;;;;;;14.77;9.73;;;23.90;39.00;;;;;;7711493;22;84035;-61
2022/10/21 01:01:59;;;;;;;15.30;10.05;;;23.90;39.10;;;;;;7717735;22;82759;-61
2022/10/21 01:05:00;;;;;;;17.33;10.43;;;23.90;39.10;;;;;;7713080;22;82479;-60
2022/10/21 01:08:00;;;;;;;15.77;10.18;;;23.90;39.00;;;;;;7713150;22;82824;-61
2022/10/21 01:11:01;;;;;;;15.95;10.80;;;23.90;39.00;;;;;;7712073;22;83046;-62
2022/10/21 01:14:01;;;;;;;16.15;11.13;;;23.90;39.00;;;;;;7683943;22;85778;-62
2022/10/21 01:17:02;;;;;;;15.13;9.80;;;23.90;38.90;;;;;;7687500;22;84026;-63
2022/10/21 01:20:02;;;;;;;14.43;10.02;;;23.90;38.90;;;;;;7715952;22;82773;-62
2022/10/21 01:23:03;;;;;;;14.10;9.73;;;23.90;39.00;;;;;;7713615;22;84473;-61
2022/10/21 01:26:03;;;;;;;17.02;10.80;;;23.90;39.00;;;;;;7717345;22;82842;-61
2022/10/21 01:29:04;;;;;;;13.75;10.07;;;23.90;38.90;;;;;;7714033;22;83730;-61
2022/10/21 01:32:04;;;;;;;13.75;9.82;;;23.90;38.90;;;;;;7712816;22;82762;-61
2022/10/21 01:35:05;;;;;;;14.65;10.30;;;23.90;38.90;;;;;;7716862;22;82858;-62
2022/10/21 01:38:05;;;;;;;17.02;10.40;;;23.90;38.90;;;;;;7712490;22;83915;-61
2022/10/21 01:41:06;;;;;;;16.45;10.50;;;23.90;38.90;;;;;;7713922;22;83068;-61
2022/10/21 01:44:06;;;;;;;15.30;9.27;;;23.90;38.80;;;;;;7713886;22;84964;-61
2022/10/21 01:47:07;;;;;;;14.48;9.93;;;23.90;38.90;;;;;;7717349;22;82730;-58
2022/10/21 01:50:09;;;;;;;15.25;10.02;;;23.90;38.80;;;;;;7717978;22;80828;-60
2022/10/21 01:53:09;;;;;;;14.85;10.70;;;23.90;38.80;;;;;;7712293;22;82712;-59
2022/10/21 01:56:10;;;;;;;14.98;9.43;;;23.90;38.80;;;;;;7714296;22;83473;-60
2022/10/21 01:59:10;;;;;;;14.35;9.88;;;23.90;38.80;;;;;;7716485;22;81682;-60
2022/10/21 02:02:11;;;;;;;13.05;9.32;;;23.90;39.00;;;;;;7716515;22;81119;-60
2022/10/21 02:05:11;;;;;;;14.30;9.98;;;23.90;38.80;;;;;;7716018;22;80162;-60
2022/10/21 02:08:12;;;;;;;20.02;11.27;;;23.90;38.80;;;;;;7714679;22;83177;-60
2022/10/21 02:11:12;;;;;;;13.50;9.98;;;23.90;38.90;;;;;;7714628;22;83029;-60
2022/10/21 02:14:13;;;;;;;15.15;10.50;;;23.80;38.70;;;;;;7711632;22;83742;-62
2022/10/21 02:17:13;;;;;;;15.93;10.55;;;23.80;38.70;;;;;;7712962;22;83727;-59
2022/10/21 02:20:14;;;;;;;14.60;10.02;;;23.80;38.60;;;;;;7714051;22;83284;-61
2022/10/21 02:23:15;;;;;;;14.60;10.30;;;23.80;38.60;;;;;;7713449;22;83127;-65
2022/10/21 02:26:15;;;;;;;14.35;10.63;;;23.80;38.60;;;;;;7712616;22;82915;-60
2022/10/21 02:29:16;;;;;;;14.75;9.68;;;23.80;38.50;;;;;;7710989;22;83003;-62
2022/10/21 02:32:16;;;;;;;16.52;10.70;;;23.80;38.60;;;;;;7717669;22;82995;-62
2022/10/21 02:35:17;;;;;;;15.70;10.52;;;23.80;38.60;;;;;;7712158;22;82688;-61
2022/10/21 02:38:17;;;;;;;14.98;10.15;;;23.80;38.60;;;;;;7684043;22;82893;-60
2022/10/21 02:41:18;;;;;;;16.23;10.23;;;23.80;38.50;;;;;;7711576;22;83155;-60
2022/10/21 02:44:18;;;;;;;14.15;9.75;;;23.70;38.60;;;;;;7713860;22;82903;-58
2022/10/21 02:47:19;;;;;;;16.50;11.00;;;23.70;38.40;;;;;;7716761;22;83168;-60
2022/10/21 02:50:19;;;;;;;14.55;9.75;;;23.70;38.40;;;;;;7710263;22;83674;-59
2022/10/21 02:53:20;;;;;;;14.00;9.40;;;23.70;38.40;;;;;;7716736;22;83470;-59
2022/10/21 02:56:20;;;;;;;19.65;10.57;;;23.70;38.50;;;;;;7715180;22;80986;-58
2022/10/21 02:59:21;;;;;;;16.85;9.90;;;23.70;38.50;;;;;;7712920;22;83232;-59
2022/10/21 03:02:22;;;;;;;16.88;10.55;;;23.70;38.50;;;;;;7715881;22;82916;-59
2022/10/21 03:05:22;;;;;;;15.25;10.45;;;23.70;38.50;;;;;;7711686;22;83083;-60
2022/10/21 03:08:23;;;;;;;16.05;10.45;;;23.70;38.50;;;;;;7712975;22;83362;-60
2022/10/21 03:11:23;;;;;;;14.80;10.43;;;23.70;38.40;;;;;;7713358;22;83603;-60
2022/10/21 03:14:24;;;;;;;15.75;10.95;;;23.70;38.50;;;;;;7711448;22;83045;-61
2022/10/21 03:17:24;;;;;;;16.65;9.88;;;23.70;38.60;;;;;;7684556;22;82911;-60
2022/10/21 03:20:25;;;;;;;16.70;9.48;;;23.80;38.60;;;;;;7710881;22;82943;-61
2022/10/21 03:23:25;;;;;;;14.35;10.60;;;23.80;38.70;;;;;;7712645;22;80286;-61
2022/10/21 03:26:26;;;;;;;14.82;10.25;;;23.90;38.60;;;;;;7713265;22;83025;-59
2022/10/21 03:29:27;;;;;;;14.52;9.95;;;23.90;38.50;;;;;;7709583;22;82890;-60
2022/10/21 03:32:27;;;;;;;17.70;10.48;;;24.00;38.40;;;;;;7715432;22;82797;-60
2022/10/21 03:35:28;;;;;;;16.95;10.50;;;24.00;38.30;;;;;;7709662;22;82939;-61
2022/10/21 03:38:28;;;;;;;13.93;9.68;;;24.00;38.10;;;;;;7686304;22;83491;-60
2022/10/21 03:41:29;;;;;;;16.40;9.82;;;24.10;38.10;;;;;;7714732;22;81693;-61
2022/10/21 03:44:29;;;;;;;16.85;10.63;;;24.10;37.90;;;;;;7715296;22;80597;-60
2022/10/21 03:47:30;;;;;;;19.13;10.45;;;24.10;37.70;;;;;;7711200;22;83036;-60
2022/10/21 03:50:30;;;;;;;14.93;10.35;;;24.20;37.80;;;;;;7686607;22;85713;-60
2022/10/21 03:53:31;;;;;;;16.77;9.70;;;24.20;37.70;;;;;;7712893;22;82678;-61
2022/10/21 03:56:32;;;;;;;17.55;11.10;;;24.20;37.60;;;;;;7717425;22;83450;-61
2022/10/21 03:59:32;;;;;;;16.98;10.82;;;24.20;37.60;;;;;;7712870;22;82628;-62
2022/10/21 04:02:33;;;;;;;18.17;10.98;;;24.20;37.60;;;;;;7711757;22;83321;-62
2022/10/21 04:05:33;;;;;;;17.95;10.65;;;24.30;37.40;;;;;;7708058;22;83436;-62
2022/10/21 04:08:34;;;;;;;16.30;10.23;;;24.30;37.40;;;;;;7706134;22;83241;-60
2022/10/21 04:11:34;;;;;;;16.17;10.75;;;24.30;37.70;;;;;;7709642;22;82926;-59
2022/10/21 04:14:35;;;;;;;19.98;10.98;;;24.30;37.50;;;;;;7697095;22;83722;-61
2022/10/21 04:17:35;;;;;;;13.73;10.02;;;24.30;37.40;;;;;;7696227;22;83386;-60
2022/10/21 04:20:36;;;;;;;20.30;10.25;;;24.40;37.70;;;;;;7703766;22;83645;-60
2022/10/21 04:23:37;;;;;;;16.58;10.73;;;24.30;37.30;;;;;;7706029;22;83346;-60
2022/10/21 04:26:37;;;;;;;16.33;10.30;;;24.40;37.50;;;;;;7713113;22;82823;-61
2022/10/21 04:29:38;;;;;;;17.58;10.27;;;24.30;37.50;;;;;;7712002;22;83890;-62
2022/10/21 04:32:38;;;;;;;16.30;9.90;;;24.30;37.40;;;;;;7712034;22;83940;-60
2022/10/21 04:35:39;;;;;;;21.17;10.88;;;24.40;37.90;;;;;;7692395;22;86395;-58
2022/10/21 04:38:39;;;;;;;17.15;10.73;;;24.40;37.80;;;;;;7711223;22;82685;-59
2022/10/21 04:41:40;;;;;;;17.50;10.80;;;24.40;37.80;;;;;;7711941;22;82993;-59
2022/10/21 04:44:41;;;;;;;19.42;11.35;;;24.40;37.90;;;;;;7684989;22;83196;-59
2022/10/21 04:47:41;;;;;;;19.17;10.60;;;24.30;38.00;;;;;;7713733;22;83365;-59
2022/10/21 04:50:42;;;;;;;16.02;10.52;;;24.40;38.10;;;;;;7712553;22;82655;-61
2022/10/21 04:53:42;;;;;;;19.67;11.55;;;24.30;37.90;;;;;;7714612;22;82677;-58
2022/10/21 04:56:43;;;;;;;17.25;11.35;;;24.30;37.80;;;;;;7711427;22;84897;-60
2022/10/21 04:59:43;;;;;;;16.92;11.43;;;24.30;38.10;;;;;;7705290;22;83446;-59
2022/10/21 05:02:44;;;;;;;18.67;11.43;;;24.30;38.10;;;;;;7708646;22;82998;-59
2022/10/21 05:05:44;;;;;;;20.80;11.60;;;24.30;38.00;;;;;;7708029;22;82682;-60
2022/10/21 05:08:45;;;;;;;17.45;11.30;;;24.30;38.20;;;;;;7709995;22;83415;-65
2022/10/21 05:11:45;;;;;;;17.85;11.65;;;24.30;38.30;;;;;;7710351;22;82584;-60
2022/10/21 05:14:46;;;;;;;17.23;12.05;;;24.20;37.90;;;;;;7713543;22;83071;-60
2022/10/21 05:17:46;;;;;;;38.20;12.23;;;24.20;38.00;;;;;;7712593;22;85717;-63
2022/10/21 05:20:47;;;;;;;16.85;11.43;;;24.20;38.60;;;;;;7710275;22;83312;-59
2022/10/21 05:23:47;;;;;;;24.20;11.68;;;24.20;38.50;;;;;;7711007;22;83075;-58
2022/10/21 05:26:48;;;;;;;30.63;11.50;;;24.10;38.60;;;;;;7707707;22;83412;-59
2022/10/21 05:29:49;;;;;;;25.65;11.48;;;24.10;38.60;;;;;;7708040;22;84345;-59
2022/10/21 05:32:49;;;;;;;18.60;11.80;;;24.10;38.80;;;;;;7712391;22;83082;-58
2022/10/21 05:35:50;;;;;;;19.85;11.50;;;24.10;38.80;;;;;;7710380;22;82899;-58
2022/10/21 05:38:50;;;;;;;17.05;11.43;;;24.00;38.70;;;;;;7706372;22;84641;-59
2022/10/21 05:41:51;;;;;;;18.33;11.60;;;23.90;38.70;;;;;;7706231;22;83807;-58
2022/10/21 05:44:51;;;;;;;16.08;11.68;;;23.90;38.70;;;;;;7707312;22;84033;-60
2022/10/21 05:47:52;;;;;;;19.10;11.63;;;23.90;38.60;;;;;;7709139;22;82886;-59
2022/10/21 05:50:52;;;;;;;18.67;12.23;;;23.90;38.60;;;;;;7708200;22;82795;-60
2022/10/21 05:53:53;;;;;;;16.17;11.68;;;23.90;38.50;;;;;;7706709;22;84427;-58
2022/10/21 05:56:53;;;;;;;18.27;12.35;;;23.90;38.50;;;;;;7711479;22;84940;-58
2022/10/21 05:59:54;;;;;;;16.75;11.85;;;23.90;38.50;;;;;;7699597;22;83705;-59
2022/10/21 06:02:55;;;;;;;19.42;13.40;;;23.90;38.30;;;;;;7706545;22;83054;-60
2022/10/21 06:05:55;;;;;;;18.88;13.20;;;23.80;38.00;;;;;;7710255;22;83433;-59
2022/10/21 06:08:56;;;;;;;16.80;11.63;;;23.80;38.00;;;;;;7710189;22;83155;-60
2022/10/21 06:11:56;;;;;;;17.77;12.43;;;23.80;37.90;;;;;;7711674;22;84248;-63
2022/10/21 06:14:57;;;;;;;17.92;12.40;;;23.80;37.80;;;;;;7711265;22;83335;-60
2022/10/21 06:17:58;;;;;;;19.52;11.90;;;23.70;37.70;;;;;;7712189;22;83392;-60
2022/10/21 06:20:58;;;;;;;20.60;11.90;;;23.70;37.80;;;;;;7701274;22;83287;-58
2022/10/21 06:23:59;;;;;;;20.40;12.98;;;23.80;37.70;;;;;;7671004;22;84227;-58
2022/10/21 06:26:59;;;;;;;16.58;11.35;;;23.70;37.70;;;;;;7709107;22;83143;-58
2022/10/21 06:30:00;;;;;;;17.10;11.40;;;23.70;37.80;;;;;;7706129;22;84299;-58
2022/10/21 06:33:00;;;;;;;19.05;11.48;;;23.70;38.00;;;;;;7710377;22;83641;-58
2022/10/21 06:36:01;;;;;;;16.75;11.45;;;23.80;38.00;;;;;;7710710;22;84468;-58
2022/10/21 06:39:01;;;;;;;16.75;11.57;;;23.70;38.10;;;;;;7710270;22;82820;-59
2022/10/21 06:42:02;;;;;;;14.82;10.43;;;23.70;37.90;;;;;;7682831;22;85996;-58
2022/10/21 06:45:23;;;;;;;16.92;11.35;;;23.70;38.10;;;;;;7710539;22;83880;-58
2022/10/21 06:48:23;;;;;;;14.85;10.60;;;23.70;38.00;;;;;;7707043;22;82708;-59
2022/10/21 06:51:24;;;;;;;17.60;10.82;;;23.70;38.10;;;;;;7682022;22;84133;-57
2022/10/21 06:54:24;;;;;;;17.23;10.88;;;23.70;38.10;;;;;;7683237;22;83425;-58
2022/10/21 06:57:26;;;;;;;16.08;10.77;;;23.70;38.10;;;;;;7711813;22;83445;-58
2022/10/21 07:00:27;;;;;;;13.52;10.05;;;23.70;38.30;;;;;;7709989;22;82693;-57
2022/10/21 07:03:27;;;;;;;13.68;9.70;;;23.70;38.30;;;;;;7709810;22;83908;-58
2022/10/21 07:06:28;;;;;;;13.05;9.38;;;23.70;38.30;;;;;;7714133;22;82943;-57
2022/10/21 07:09:29;;;;;;;16.88;10.27;;;23.80;39.10;;;;;;7688827;22;83353;-59
2022/10/21 07:12:30;;;;;;;17.90;10.77;;;23.80;38.50;;;;;;7710188;22;84600;-59
2022/10/21 07:15:30;;;;;;;17.08;10.50;;;23.80;38.50;;;;;;7709163;22;82924;-59
2022/10/21 07:18:31;;;;;;;14.15;10.02;;;23.80;38.60;;;;;;7709783;22;82930;-55
2022/10/21 07:21:31;;;;;;;14.10;9.57;;;23.80;38.70;;;;;;7709806;22;84398;-58
2022/10/21 07:24:32;;;;;;;14.35;9.30;;;23.80;38.80;;;;;;7718333;22;83460;-58
2022/10/21 07:27:33;;;;;;;16.02;10.32;;;23.80;38.90;;;;;;7716178;22;80410;-56
2022/10/21 07:30:33;;;;;;;15.35;10.48;;;23.80;39.10;;;;;;7713939;22;82623;-59
2022/10/21 07:33:34;;;;;;;14.35;9.70;;;23.80;39.00;;;;;;7692755;22;83755;-57
2022/10/21 07:36:34;;;;;;;15.57;10.43;;;23.80;39.60;;;;;;7696431;22;82746;-57
2022/10/21 07:39:35;;;;;;;15.75;11.07;;;23.80;39.00;;;;;;7690679;22;84233;-58
2022/10/21 07:42:36;;;;;;;18.98;12.10;;;23.80;39.20;;;;;;7690408;22;84423;-58
2022/10/21 07:45:36;;;;;;;24.30;15.60;;;23.90;39.40;;;;;;7693641;22;83709;-58
2022/10/21 07:48:37;;;;;;;33.78;20.13;;;23.80;38.40;;;;;;7691952;22;83905;-57
2022/10/21 07:51:38;;;;;;;36.88;20.45;;;23.70;38.60;;;;;;7695966;22;84193;-64
2022/10/21 07:54:38;;;;;;;37.58;21.55;;;23.60;37.70;;;;;;7692057;22;84504;-57
2022/10/21 07:57:39;;;;;;;36.00;20.88;;;23.50;38.00;;;;;;7694031;22;83998;-56
2022/10/21 08:00:39;;;;;;;33.67;20.45;;;23.50;38.10;;;;;;7692531;22;83901;-58
2022/10/21 08:03:40;;;;;;;31.65;19.52;;;23.40;38.00;;;;;;7690092;22;84042;-57
2022/10/21 08:06:40;;;;;;;31.67;18.38;;;23.40;38.20;;;;;;7691783;22;83513;-56
2022/10/21 08:09:41;;;;;;;27.85;18.30;;;23.30;38.10;;;;;;7693630;22;84441;-59
2022/10/21 08:12:41;;;;;;;25.98;17.80;;;23.30;38.20;;;;;;7692480;22;84261;-60
2022/10/21 08:15:42;;;;;;;25.80;16.45;;;23.30;38.30;;;;;;7694743;22;83876;-61
2022/10/21 08:18:43;;;;;;;29.40;17.00;;;23.30;38.20;;;;;;7696839;22;84040;-60
2022/10/21 08:21:43;;;;;;;24.85;16.40;;;23.40;38.20;;;;;;7691366;22;83454;-59
2022/10/21 08:24:44;;;;;;;23.67;15.40;;;23.40;38.20;;;;;;7694696;22;83146;-58
2022/10/21 08:27:44;;;;;;;22.50;14.40;;;23.40;38.10;;;;;;7696598;22;83553;-59
2022/10/21 08:30:45;;;;;;;23.50;14.68;;;23.40;38.10;;;;;;7691619;22;83837;-59
2022/10/21 08:33:45;;;;;;;21.23;14.55;;;23.50;38.30;;;;;;7691897;22;83576;-60
2022/10/21 08:36:46;;;;;;;22.27;14.40;;;23.60;38.40;;;;;;7663696;22;83968;-59
2022/10/21 08:39:46;;;;;;;19.92;13.93;;;23.60;38.10;;;;;;7693418;22;84443;-59
2022/10/21 08:42:47;;;;;;;21.58;13.48;;;23.60;38.00;;;;;;7692744;22;83938;-59
2022/10/21 08:45:47;;;;;;;24.42;14.23;;;23.70;38.10;;;;;;7694151;22;83664;-61
2022/10/21 08:48:48;;;;;;;22.38;14.73;;;23.70;38.00;;;;;;7665108;22;84447;-62
2022/10/21 08:51:48;;;;;;;20.35;14.90;;;23.60;37.90;;;;;;7697343;22;84491;-62
2022/10/21 08:54:49;;;;;;;26.67;15.18;;;23.60;37.90;;;;;;7691315;22;83804;-59
2022/10/21 08:57:49;;;;;;;27.33;15.38;;;23.60;37.80;;;;;;7694538;22;84123;-59
2022/10/21 09:00:50;;;;;;;22.38;14.38;;;23.60;38.00;;;;;;7708391;22;83230;-59
2022/10/21 09:03:53;;;;;;;24.02;15.25;;;23.60;38.10;;;;;;7684747;22;83736;-60
2022/10/21 09:06:53;;;;;;;22.48;15.10;;;23.60;38.20;;;;;;7704584;22;84276;-59
2022/10/21 09:09:54;;;;;;;21.85;15.13;;;23.70;38.30;;;;;;7705041;22;83201;-58
2022/10/21 09:12:55;;;;;;;24.70;15.38;;;23.60;38.30;;;;;;7712760;22;85819;-60
2022/10/21 09:15:55;;;;;;;26.55;16.23;;;23.60;38.30;;;;;;7709338;22;84557;-60
2022/10/21 09:18:56;;;;;;;29.17;15.23;;;23.60;38.40;;;;;;7711924;22;82951;-61
2022/10/21 09:21:56;;;;;;;23.67;15.57;;;23.50;38.40;;;;;;7712119;22;82761;-57
2022/10/21 09:24:57;;;;;;;21.25;14.15;;;23.50;38.60;;;;;;7713813;22;83557;-58
2022/10/21 09:27:57;;;;;;;21.40;14.50;;;23.50;38.70;;;;;;7708963;22;83248;-58
2022/10/21 09:30:58;;;;;;;29.30;14.85;;;23.50;38.80;;;;;;7711311;22;83147;-58
2022/10/21 09:33:58;;;;;;;21.38;14.18;;;23.50;38.90;;;;;;7686436;22;85665;-58
2022/10/21 09:36:59;;;;;;;20.92;14.18;;;23.50;39.00;;;;;;7712538;22;83834;-58
2022/10/21 09:39:59;;;;;;;21.48;13.70;;;23.40;39.00;;;;;;7712160;22;82884;-59
2022/10/21 09:43:00;;;;;;;24.65;14.90;;;23.40;39.00;;;;;;7711658;22;83203;-59
2022/10/21 09:46:01;;;;;;;30.95;14.18;;;23.40;39.20;;;;;;7713213;22;83579;-57
2022/10/21 09:49:01;;;;;;;21.63;14.07;;;23.30;39.30;;;;;;7706296;22;88765;-56
2022/10/21 09:52:02;;;;;;;19.35;12.98;;;23.30;39.30;;;;;;7710877;22;82936;-56
2022/10/21 09:55:03;;;;;;;18.33;13.00;;;23.20;39.40;;;;;;7706861;22;83708;-58
2022/10/21 09:58:03;;;;;;;19.02;13.40;;;23.20;39.50;;;;;;7712541;22;82751;-58
2022/10/21 10:01:04;;;;;;;22.48;13.10;;;23.20;39.60;;;;;;7712310;22;83038;-57
2022/10/21 10:04:04;;;;;;;18.23;12.15;;;23.20;39.80;;;;;;7709276;22;82940;-58
2022/10/21 10:07:05;;;;;;;18.33;12.68;;;23.10;39.90;;;;;;7711023;22;83688;-58
2022/10/21 10:10:05;;;;;;;17.33;12.15;;;23.10;39.90;;;;;;7712714;22;82652;-58
2022/10/21 10:13:06;;;;;;;18.77;12.07;;;23.10;40.00;;;;;;7712738;22;83726;-57
2022/10/21 10:16:06;;;;;;;23.60;13.65;;;23.20;40.20;;;;;;7711241;22;88870;-48
2022/10/21 10:19:07;;;;;;;29.20;15.23;;;23.20;40.20;;;;;;7711451;22;83002;-59
2022/10/21 10:22:08;;;;;;;27.05;17.15;;;23.20;40.80;;;;;;7712013;22;83449;-59
2022/10/21 10:25:08;;;;;;;33.42;16.92;;;23.20;40.10;;;;;;7710594;22;82802;-57
2022/10/21 10:28:09;;;;;;;33.00;18.48;;;23.20;40.30;;;;;;7711420;22;84373;-57
2022/10/21 10:31:09;;;;;;;30.98;17.98;;;23.20;40.30;;;;;;7710689;22;82865;-58
2022/10/21 10:34:10;;;;;;;33.55;18.10;;;23.30;40.40;;;;;;7713555;22;83278;-59
2022/10/21 10:37:10;;;;;;;32.28;18.15;;;23.30;40.60;;;;;;7662547;22;84850;-58
2022/10/21 10:40:11;;;;;;;28.23;16.23;;;23.20;40.50;;;;;;7706666;22;83548;-56
2022/10/21 10:43:11;;;;;;;28.50;16.52;;;23.30;40.70;;;;;;7711748;22;89198;-57
2022/10/21 10:46:12;;;;;;;31.92;15.85;;;23.20;40.60;;;;;;7707251;22;83266;-58
2022/10/21 10:49:12;;;;;;;23.63;14.98;;;23.20;41.00;;;;;;7704558;22;83862;-58
2022/10/21 10:52:13;;;;;;;27.02;14.93;;;23.20;40.90;;;;;;7704383;22;83294;-58
2022/10/21 10:55:14;;;;;;;20.83;13.30;;;23.30;41.00;;;;;;7703292;22;83152;-57
2022/10/21 10:58:14;;;;;;;22.30;12.95;;;23.30;41.10;;;;;;7712626;22;84667;-58
2022/10/21 11:01:14;;;;;;;27.38;13.75;;;23.30;41.30;;;;;;7666977;22;83389;-59
2022/10/21 11:04:15;;;;;;;23.55;13.25;;;23.30;41.30;;;;;;7693325;22;83608;-56
2022/10/21 11:07:15;;;;;;;24.75;13.57;;;23.30;41.40;;;;;;7710642;22;82923;-60
2022/10/21 11:10:16;;;;;;;21.48;13.52;;;23.30;41.80;;;;;;7684924;22;84687;-57
2022/10/21 11:13:16;;;;;;;21.52;13.32;;;23.30;41.90;;;;;;7706194;22;89380;-56
2022/10/21 11:16:17;;;;;;;22.27;13.10;;;23.30;42.20;;;;;;7705287;22;83674;-55
2022/10/21 11:19:18;;;;;;;23.52;13.02;;;23.40;42.40;;;;;;7706354;22;83280;-55
2022/10/21 11:22:19;;;;;;;23.83;13.13;;;23.30;42.60;;;;;;7678249;22;84761;-55
2022/10/21 11:25:20;;;;;;;22.75;11.48;;;23.30;42.50;;;;;;7713463;22;83291;-58
2022/10/21 11:28:20;;;;;;;17.92;11.52;;;23.30;42.60;;;;;;7706127;22;84628;-59
2022/10/21 11:31:21;;;;;;;17.60;11.80;;;23.40;43.20;;;;;;7705261;22;83138;-57
2022/10/21 11:34:21;;;;;;;15.02;9.55;;;23.40;42.70;;;;;;7703679;22;86133;-59
2022/10/21 11:37:22;;;;;;;19.38;9.63;;;23.40;43.00;;;;;;7708652;22;81925;-59
2022/10/21 11:40:22;;;;;;;16.92;10.25;;;23.50;43.10;;;;;;7711505;22;80469;-58
2022/10/21 11:43:23;;;;;;;14.55;9.68;;;23.60;43.00;;;;;;7705970;22;83209;-57
2022/10/21 11:46:23;;;;;;;14.30;10.35;;;23.60;42.80;;;;;;7709885;22;82790;-59
2022/10/21 11:49:24;;;;;;;15.80;9.75;;;23.60;42.80;;;;;;7708486;22;83223;-59
2022/10/21 11:52:24;;;;;;;13.82;8.52;;;23.70;42.80;;;;;;7716516;22;82888;-58
2022/10/21 11:55:25;;;;;;;19.52;8.65;;;23.70;42.90;;;;;;7682380;22;82262;-58
2022/10/21 11:58:26;;;;;;;13.88;9.05;;;23.70;42.80;;;;;;7714322;22;80568;-58
2022/10/21 12:01:26;;;;;;;13.02;8.75;;;23.70;42.80;;;;;;7711253;22;80043;-58
2022/10/21 12:04:27;;;;;;;13.68;8.25;;;23.70;42.80;;;;;;7689592;22;82700;-58
2022/10/21 12:07:27;;;;;;;12.27;8.02;;;23.80;42.80;;;;;;7717394;22;80115;-49
2022/10/21 12:10:29;;;;;;;13.13;8.23;;;23.80;42.90;;;;;;7717010;22;81329;-48
2022/10/21 12:13:30;;;;;;;12.88;8.93;;;23.80;43.00;;;;;;7715872;22;80655;-47
2022/10/21 12:16:30;;;;;;;13.43;8.38;;;23.80;43.30;;;;;;7718129;22;81055;-47
2022/10/21 12:19:31;;;;;;;13.23;8.30;;;23.80;43.80;;;;;;7716298;22;80375;-49
2022/10/21 12:22:32;;;;;;;12.68;8.30;;;23.90;44.20;;;;;;7717646;22;80886;-49
2022/10/21 12:25:32;;;;;;;12.15;7.63;;;23.80;44.00;;;;;;7719101;22;80366;-59
2022/10/21 12:28:33;;;;;;;16.00;8.15;;;23.90;44.30;;;;;;7718028;22;80331;-60
2022/10/21 12:31:33;;;;;;;12.98;7.68;;;23.90;44.50;;;;;;7711627;22;80342;-59
2022/10/21 12:34:34;;;;;;;10.45;7.47;;;23.90;44.70;;;;;;7707765;22;81174;-59
2022/10/21 12:37:34;;;;;;;12.48;8.18;;;23.90;44.50;;;;;;7716180;22;80271;-59
2022/10/21 12:40:36;;;;;;;11.20;7.72;;;23.90;44.30;;;;;;7716877;22;79990;-60
2022/10/21 12:43:36;;;;;;;12.93;7.68;;;24.00;44.20;;;;;;7717665;22;80245;-60
2022/10/21 12:46:37;;;;;;;10.23;7.70;;;24.00;44.10;;;;;;7716768;22;80992;-55
2022/10/21 12:49:37;;;;;;;13.05;7.50;;;24.00;44.10;;;;;;7714803;22;80286;-57
2022/10/21 12:52:40;;;;;;;12.45;7.57;;;24.00;43.90;;;;;;7715478;22;80834;-57
2022/10/21 12:55:40;;;;;;;12.93;6.95;;;24.10;43.90;;;;;;7714404;22;80188;-58
2022/10/21 12:58:41;;;;;;;12.65;7.00;;;24.10;43.90;;;;;;7710719;22;80181;-58
2022/10/21 13:01:42;;;;;;;11.18;7.07;;;24.00;44.10;;;;;;7716375;22;85966;-47
2022/10/21 13:04:42;;;;;;;10.40;6.60;;;24.00;44.10;;;;;;7712662;22;80506;-49
2022/10/21 13:07:43;;;;;;;14.10;6.93;;;24.10;44.40;;;;;;7715150;22;80390;-49
2022/10/21 13:10:43;;;;;;;8.57;6.07;;;24.00;44.40;;;;;;7715709;22;80445;-51
2022/10/21 13:13:44;;;;;;;10.27;6.30;;;24.10;44.20;;;;;;7716684;22;81196;-51
2022/10/21 13:16:44;;;;;;;9.77;6.32;;;24.20;43.90;;;;;;7712720;22;80348;-51
2022/10/21 13:19:45;;;;;;;11.35;6.45;;;24.20;44.00;;;;;;7716025;22;81030;-52
2022/10/21 13:22:45;;;;;;;12.25;6.78;;;24.20;43.80;;;;;;7715521;22;80014;-47
2022/10/21 13:25:46;;;;;;;10.20;6.93;;;24.30;43.70;;;;;;7689847;22;81033;-45
2022/10/21 13:28:46;;;;;;;11.32;6.05;;;24.30;43.80;;;;;;7715265;22;80238;-49
2022/10/21 13:31:47;;;;;;;11.63;6.95;;;24.30;44.10;;;;;;7688688;22;81376;-50
2022/10/21 13:34:48;;;;;;;12.88;7.13;;;24.30;43.70;;;;;;7716896;22;80685;-48
2022/10/21 13:37:48;;;;;;;8.73;6.50;;;24.40;43.60;;;;;;7713824;22;80161;-47
2022/10/21 13:40:49;;;;;;;13.13;6.20;;;24.40;43.60;;;;;;7716980;22;81613;-50
2022/10/21 13:43:49;;;;;;;23.42;13.32;;;24.40;43.50;;;;;;7701421;22;82440;-47
2022/10/21 13:46:50;;;;;;;111.25;52.47;;;24.40;43.80;;;;;;7709408;22;83153;-49
2022/10/21 13:49:50;;;;;;;159.52;77.07;;;24.40;43.80;;;;;;7707577;22;82942;-47
2022/10/21 13:52:51;;;;;;;191.30;87.93;;;24.40;44.00;;;;;;7711074;22;83434;-52
2022/10/21 13:55:51;;;;;;;206.90;101.72;;;24.40;44.30;;;;;;7702339;22;83866;-48
2022/10/21 13:58:52;;;;;;;229.05;109.50;;;24.40;44.60;;;;;;7703172;22;86996;-48
2022/10/21 14:01:52;;;;;;;196.38;92.35;;;24.40;44.70;;;;;;7705948;22;85671;-50
2022/10/21 14:04:53;;;;;;;184.13;87.53;;;24.40;44.60;;;;;;7712739;22;85781;-50
2022/10/21 14:07:54;;;;;;;156.18;75.53;;;24.40;44.70;;;;;;7716068;22;84365;-48
2022/10/21 14:10:54;;;;;;;147.10;69.05;;;24.40;44.80;;;;;;7708855;22;82845;-46
2022/10/21 14:13:55;;;;;;;137.85;62.92;;;24.40;44.70;;;;;;7713326;22;83007;-50
2022/10/21 14:16:55;;;;;;;134.00;58.95;;;24.40;44.80;;;;;;7713897;22;83100;-52
2022/10/21 14:19:56;;;;;;;114.22;54.95;;;24.40;44.80;;;;;;7715123;22;82908;-47
2022/10/21 14:22:56;;;;;;;101.70;50.88;;;24.40;44.90;;;;;;7714486;22;83138;-49
2022/10/21 14:25:57;;;;;;;99.65;48.40;;;24.40;45.00;;;;;;7709495;22;84583;-49
2022/10/21 14:28:57;;;;;;;96.35;46.08;;;24.40;45.00;;;;;;7682629;22;83027;-54
2022/10/21 14:31:58;;;;;;;92.50;43.45;;;24.40;45.00;;;;;;7712535;22;83395;-48
2022/10/21 14:34:58;;;;;;;84.40;41.05;;;24.40;45.10;;;;;;7713139;22;83275;-59
2022/10/21 14:37:59;;;;;;;82.57;39.05;;;24.40;45.40;;;;;;7713416;22;84520;-56
2022/10/21 14:40:59;;;;;;;75.20;36.22;;;24.40;45.40;;;;;;7710468;22;83664;-54
2022/10/21 14:44:00;;;;;;;78.30;35.63;;;24.40;45.70;;;;;;7714429;22;83151;-61
2022/10/21 14:47:00;;;;;;;73.72;35.00;;;24.40;45.70;;;;;;7685919;22;83092;-53
2022/10/21 14:50:02;;;;;;;67.05;32.50;;;24.40;45.60;;;;;;7715358;22;83865;-58
2022/10/21 14:53:03;;;;;;;59.80;29.30;;;24.30;45.40;;;;;;7713983;22;83797;-55
2022/10/21 14:56:04;;;;;;;58.83;28.80;;;24.40;45.70;;;;;;7684681;22;84038;-56
2022/10/21 14:59:04;;;;;;;59.60;27.70;;;24.30;45.80;;;;;;7670205;22;85581;-56
2022/10/21 15:02:05;;;;;;;51.38;26.55;;;24.30;45.80;;;;;;7688580;22;83263;-55
2022/10/21 15:05:05;;;;;;;47.63;25.52;;;24.40;45.80;;;;;;7691042;22;83366;-55
2022/10/21 15:08:06;;;;;;;48.03;24.33;;;24.40;45.70;;;;;;7693817;22;83872;-54
2022/10/21 15:11:11;;;;;;;45.88;22.92;;;24.30;45.60;;;;;;7683757;22;84196;-60
2022/10/21 15:14:11;;;;;;;45.95;22.92;;;24.30;46.10;;;;;;7713353;22;84382;-62
2022/10/21 15:17:12;;;;;;;40.28;21.67;;;24.30;46.10;;;;;;7713664;22;82925;-60